To NAV CANADA Home Page Login to a new session Search on AWWS site Disclaimer Vers la page française équivalente Tips FAQ What's new on the site To the Forecasts and Observations / NOTAM section To "File a Flight Plan" website Publications and other links Update of the User's profile FIC Telephone Numbers My Weather Data Folder Route Weather Data Regional Weather Data Local Weather Data To the Forecasts and Observations / NOTAM section
Request Generated 04/24/2019 at 16:24:49 UTC . Weather information available at that time is displayed.

METAR/TAF

KENORA/ON    

SPECI CYQK 241618Z 29007G17KT 15SM -SHRA SCT070 BKN120 OVC260 13/05 A2961 RMK AC3AC4CS1 ACC ASOCTD SLP035 DENSITY ALT 1900FT=
METAR CYQK 241600Z 24010KT 20SM FEW045 BKN075 BKN120 OVC260 13/05 A2960 RMK SC2AC3AC1CS2 VIRGA NW SLP030 DENSITY ALT 1900FT=
METAR CYQK 241500Z 24010KT 20SM FEW080 SCT130 SCT180 OVC260 13/05 A2959 RMK AC1AC2AC1CI4 SLP028 DENSITY ALT 1800FT=
METAR CYQK 241400Z 21010KT 20SM FEW130 BKN260 12/05 A2960 RMK AC2CI4 SLP031 DENSITY ALT 1700FT=

TAF CYQK 241338Z 2414/2502 19007KT P6SM FEW080 SCT140 TEMPO 2414/2417
BKN080
FM241630 29012KT P6SM BKN080
FM241900 28010G20KT P6SM SCT080 TEMPO 2419/2424 P6SM -SHRA VCTS
SCT030 BKN080CB
FM250000 30012KT P6SM FEW080
RMK NXT FCST BY 242000Z=
Your time UTC time
Weather data provided by Environment Canada and NAV CANADA